createdAt,value
2023-05-20T00:00:51.249Z,3.33
2023-05-20T00:03:22.941Z,3.40
2023-05-20T00:05:54.586Z,3.83
2023-05-20T00:08:24.693Z,3.70
2023-05-20T00:10:54.356Z,3.80
2023-05-20T00:13:24.856Z,4.25
2023-05-20T00:15:54.684Z,3.70
2023-05-20T00:18:25.382Z,4.17
2023-05-20T00:20:58.477Z,3.43
2023-05-20T00:23:29.645Z,3.70
2023-05-20T00:26:00.714Z,3.43
2023-05-20T00:28:30.884Z,3.58
2023-05-20T00:31:02.810Z,4.10
2023-05-20T00:33:33.446Z,3.28
2023-05-20T00:36:02.759Z,3.30
2023-05-20T00:38:32.182Z,3.80
2023-05-20T00:41:01.401Z,3.77
2023-05-20T00:43:33.582Z,3.87
2023-05-20T00:46:03.860Z,3.63
2023-05-20T00:48:41.518Z,3.97
2023-05-20T00:51:12.148Z,3.10
2023-05-20T00:53:41.771Z,4.20
2023-05-20T00:56:11.574Z,3.80
2023-05-20T00:58:41.689Z,3.47
2023-05-20T01:01:11.112Z,3.58
2023-05-20T01:03:42.816Z,3.83
2023-05-20T01:06:12.660Z,4.38
2023-05-20T01:08:42.386Z,4.68
2023-05-20T01:11:18.028Z,4.90
2023-05-20T01:13:49.382Z,4.60
2023-05-20T01:16:21.918Z,4.00
2023-05-20T01:18:57.553Z,4.88
2023-05-20T01:21:28.872Z,4.03
2023-05-20T01:23:59.498Z,4.45
2023-05-20T01:26:29.021Z,4.53
2023-05-20T01:28:58.183Z,3.67
2023-05-20T01:31:31.130Z,3.90
2023-05-20T01:34:01.915Z,4.00
2023-05-20T01:36:32.397Z,3.55
2023-05-20T01:39:06.152Z,4.07
2023-05-20T01:41:37.078Z,3.60
2023-05-20T01:44:06.854Z,3.55
2023-05-20T01:46:37.393Z,4.75
2023-05-20T01:49:09.396Z,3.60
2023-05-20T01:51:38.640Z,4.13
2023-05-20T01:54:10.634Z,4.95
2023-05-20T01:56:40.253Z,4.43
2023-05-20T01:59:09.658Z,4.13
2023-05-20T02:01:39.192Z,4.15
2023-05-20T02:04:08.616Z,4.90
2023-05-20T02:06:38.538Z,4.00
2023-05-20T02:09:09.702Z,4.63
2023-05-20T02:11:38.879Z,4.10
2023-05-20T02:14:08.450Z,4.90
2023-05-20T02:16:38.070Z,4.00
2023-05-20T02:19:13.041Z,4.38
2023-05-20T02:21:44.309Z,3.80
2023-05-20T02:24:25.046Z,5.80
2023-05-20T02:26:55.860Z,4.68
2023-05-20T02:29:25.490Z,5.38
2023-05-20T02:31:54.938Z,4.82
2023-05-20T02:34:26.341Z,4.00
2023-05-20T02:36:56.618Z,4.13
2023-05-20T02:39:28.704Z,4.75
2023-05-20T02:41:58.286Z,5.05
2023-05-20T02:44:28.088Z,5.72
2023-05-20T02:46:57.413Z,4.40
2023-05-20T02:49:26.647Z,4.63
2023-05-20T02:51:56.008Z,4.30
2023-05-20T02:54:26.681Z,4.75
2023-05-20T02:56:56.280Z,4.50
2023-05-20T02:59:25.799Z,4.35
2023-05-20T03:01:54.928Z,4.90
2023-05-20T03:04:26.333Z,4.45
2023-05-20T03:06:58.185Z,4.60
2023-05-20T03:09:29.116Z,4.20
2023-05-20T03:12:01.953Z,5.18
2023-05-20T03:14:34.044Z,4.47
2023-05-20T03:17:03.573Z,4.18
2023-05-20T03:19:33.202Z,5.00
2023-05-20T03:22:02.432Z,5.47
2023-05-20T03:24:32.938Z,4.60
2023-05-20T03:27:02.141Z,5.68
2023-05-20T03:29:31.489Z,3.72
2023-05-20T03:32:00.849Z,4.72
2023-05-20T03:34:30.330Z,4.97
2023-05-20T03:37:00.389Z,3.95
2023-05-20T03:39:29.488Z,5.00
2023-05-20T03:41:59.952Z,4.03
2023-05-20T03:44:29.218Z,4.30
2023-05-20T03:46:58.515Z,4.88
2023-05-20T03:49:27.757Z,5.30
2023-05-20T03:51:56.906Z,3.70
2023-05-20T03:54:26.010Z,4.88
2023-05-20T03:56:55.392Z,4.72
2023-05-20T03:59:25.835Z,4.57
2023-05-20T04:01:55.113Z,4.60
2023-05-20T04:04:24.139Z,4.55
2023-05-20T04:06:54.517Z,4.07
2023-05-20T04:09:23.788Z,4.70
2023-05-20T04:11:53.138Z,7.40
2023-05-20T04:14:22.317Z,4.35
2023-05-20T04:16:52.943Z,4.00
2023-05-20T04:19:24.272Z,4.47
2023-05-20T04:21:53.857Z,4.68
2023-05-20T04:24:25.336Z,4.88
2023-05-20T04:26:54.570Z,5.70
2023-05-20T04:29:24.266Z,4.60
2023-05-20T04:31:54.911Z,4.93
2023-05-20T04:34:26.982Z,5.13
2023-05-20T04:36:58.131Z,4.27
2023-05-20T04:39:27.294Z,4.35
2023-05-20T04:41:56.518Z,5.70
2023-05-20T04:44:26.645Z,5.50
2023-05-20T04:46:58.083Z,5.70
2023-05-20T04:49:29.324Z,4.10
2023-05-20T04:51:58.675Z,5.03
2023-05-20T04:54:28.513Z,4.70
2023-05-20T04:57:01.705Z,4.18
2023-05-20T04:59:31.335Z,4.80
2023-05-20T05:02:02.003Z,4.70
2023-05-20T05:04:31.435Z,5.07
2023-05-20T05:07:00.636Z,4.45
2023-05-20T05:09:29.737Z,6.47
2023-05-20T05:11:59.278Z,5.50
2023-05-20T05:14:28.299Z,6.47
2023-05-20T05:16:58.485Z,5.07
2023-05-20T05:19:29.065Z,5.07
2023-05-20T05:21:58.250Z,5.00
2023-05-20T05:24:30.908Z,4.63
2023-05-20T05:27:03.205Z,5.77
2023-05-20T05:29:32.380Z,4.50
2023-05-20T05:32:01.592Z,5.43
2023-05-20T05:34:32.121Z,5.43
2023-05-20T05:37:02.107Z,5.50
2023-05-20T05:39:31.419Z,6.20
2023-05-20T05:42:00.952Z,6.13
2023-05-20T05:44:30.831Z,6.20
2023-05-20T05:47:00.052Z,5.40
2023-05-20T05:49:31.275Z,5.10
2023-05-20T05:52:01.361Z,5.10
2023-05-20T05:54:31.309Z,5.10
2023-05-20T05:57:00.693Z,5.07
2023-05-20T05:59:33.608Z,5.63
2023-05-20T06:02:03.057Z,6.03
2023-05-20T06:04:33.943Z,5.30
2023-05-20T06:07:03.470Z,6.73
2023-05-20T06:09:32.688Z,5.90
2023-05-20T06:12:02.631Z,5.60
2023-05-20T06:14:32.648Z,6.03
2023-05-20T06:17:02.434Z,5.60
2023-05-20T06:19:33.456Z,5.57
2023-05-20T06:22:02.818Z,5.90
2023-05-20T06:24:32.154Z,5.80
2023-05-20T06:27:01.600Z,5.37
2023-05-20T06:29:31.057Z,5.20
2023-05-20T06:32:00.845Z,5.20
2023-05-20T06:34:30.072Z,5.77
2023-05-20T06:37:01.152Z,5.00
2023-05-20T06:39:30.739Z,4.90
2023-05-20T06:41:59.882Z,5.83
2023-05-20T06:44:34.662Z,6.00
2023-05-20T06:47:18.182Z,7.33
2023-05-20T06:49:49.780Z,5.80
2023-05-20T06:52:20.426Z,5.50
2023-05-20T06:54:49.745Z,6.30
2023-05-20T06:57:19.968Z,6.13
2023-05-20T06:59:49.052Z,6.60
2023-05-20T07:02:19.479Z,5.40
2023-05-20T07:04:48.857Z,8.87
2023-05-20T07:07:20.322Z,6.63
2023-05-20T07:09:49.807Z,5.90
2023-05-20T07:12:18.956Z,6.43
2023-05-20T07:14:48.319Z,7.20
2023-05-20T07:17:17.936Z,6.23
2023-05-20T07:19:48.651Z,5.43
2023-05-20T07:22:19.336Z,5.90
2023-05-20T07:24:57.407Z,5.30
2023-05-20T07:27:26.638Z,6.50
2023-05-20T07:29:57.422Z,6.53
2023-05-20T07:32:30.147Z,6.23
2023-05-20T07:35:04.376Z,6.63
2023-05-20T07:37:36.732Z,5.77
2023-05-20T07:40:08.350Z,6.67
2023-05-20T07:42:44.425Z,7.60
2023-05-20T07:45:18.959Z,5.70
2023-05-20T07:47:52.500Z,6.80
2023-05-20T07:50:29.336Z,6.00
2023-05-20T07:53:00.373Z,6.77
2023-05-20T07:55:35.964Z,6.30
2023-05-20T07:58:06.630Z,6.40
2023-05-20T08:00:37.722Z,5.70
2023-05-20T08:03:10.045Z,6.03
2023-05-20T08:05:52.977Z,6.07
2023-05-20T08:08:23.788Z,6.23
2023-05-20T08:10:57.971Z,6.30
2023-05-20T08:13:30.714Z,6.57
2023-05-20T08:16:04.119Z,6.87
2023-05-20T08:18:33.845Z,6.93
2023-05-20T08:21:02.962Z,6.30
2023-05-20T08:23:36.398Z,6.93
2023-05-20T08:26:08.170Z,6.40
2023-05-20T08:28:40.171Z,6.17
2023-05-20T08:31:10.910Z,5.83
2023-05-20T08:33:40.257Z,6.43
2023-05-20T08:36:09.702Z,5.90
2023-05-20T08:38:40.349Z,6.70
2023-05-20T08:41:09.752Z,5.30
2023-05-20T08:43:41.565Z,5.90
2023-05-20T08:46:11.959Z,5.30
2023-05-20T08:48:42.429Z,6.17
2023-05-20T08:54:04.984Z,5.53
2023-05-20T08:56:34.680Z,5.43
2023-05-20T08:59:06.792Z,5.83
2023-05-20T09:01:44.457Z,5.70
2023-05-20T09:05:25.964Z,6.40
2023-05-20T09:24:52.353Z,6.80
2023-05-20T09:27:25.090Z,6.23
2023-05-20T09:29:55.328Z,6.23
2023-05-20T09:32:37.690Z,5.87
2023-05-20T09:35:12.630Z,5.40
2023-05-20T09:37:51.873Z,5.23
2023-05-20T09:40:48.503Z,5.97
2023-05-20T09:43:23.871Z,5.80
2023-05-20T09:46:33.567Z,6.17
2023-05-20T09:49:33.749Z,7.03
2023-05-20T09:52:13.380Z,6.30
2023-05-20T09:54:50.586Z,7.30
2023-05-20T09:57:26.046Z,6.90
2023-05-20T10:00:10.913Z,6.10
2023-05-20T10:02:50.767Z,8.43
2023-05-20T10:05:31.297Z,7.40
2023-05-20T10:08:38.489Z,7.37
2023-05-20T10:11:22.113Z,6.90
2023-05-20T10:14:19.070Z,7.47
2023-05-20T10:16:58.098Z,7.77
2023-05-20T10:22:33.008Z,7.60
2023-05-20T10:25:11.884Z,7.90
2023-05-20T10:27:49.641Z,8.03
2023-05-20T10:30:22.836Z,7.70
2023-05-20T10:32:57.086Z,8.30
2023-05-20T10:35:28.950Z,7.53
2023-05-20T10:38:10.906Z,8.50
2023-05-20T10:40:41.113Z,7.47
2023-05-20T10:43:17.129Z,8.43
2023-05-20T10:45:56.410Z,8.23
2023-05-20T10:48:27.742Z,7.97
2023-05-20T10:50:58.560Z,7.70
2023-05-20T10:53:33.267Z,8.10
2023-05-20T10:56:04.241Z,7.80
2023-05-20T10:58:56.210Z,6.60
2023-05-20T11:01:28.099Z,6.83
2023-05-20T11:03:58.485Z,7.40
2023-05-20T11:06:29.925Z,7.93
2023-05-20T11:09:07.837Z,8.07
2023-05-20T11:11:38.733Z,7.70
2023-05-20T11:14:07.829Z,8.37
2023-05-20T11:16:38.401Z,8.07
2023-05-20T11:19:09.667Z,7.17
2023-05-20T11:21:45.529Z,8.23
2023-05-20T11:24:14.800Z,9.40
2023-05-20T11:26:43.877Z,8.33
2023-05-20T11:29:12.823Z,8.10
2023-05-20T11:31:43.336Z,8.83
2023-05-20T11:34:12.473Z,8.20
2023-05-20T11:36:43.099Z,8.90
2023-05-20T11:39:13.586Z,8.30
2023-05-20T11:41:44.353Z,7.57
2023-05-20T11:44:13.950Z,9.37
2023-05-20T11:46:49.234Z,8.17
2023-05-20T11:49:19.082Z,7.90
2023-05-20T11:51:48.270Z,8.77
2023-05-20T11:54:17.563Z,8.77
2023-05-20T11:56:46.594Z,7.63
2023-05-20T11:59:16.937Z,8.77
2023-05-20T12:01:47.244Z,8.47
2023-05-20T12:04:16.627Z,8.57
2023-05-20T12:06:45.854Z,9.77
2023-05-20T12:09:15.381Z,8.13
2023-05-20T12:11:45.395Z,9.00
2023-05-20T12:14:14.441Z,8.53
2023-05-20T12:16:43.377Z,10.23
2023-05-20T12:19:13.856Z,9.83
2023-05-20T12:21:42.853Z,9.60
2023-05-20T12:24:11.821Z,9.30
2023-05-20T12:26:41.371Z,8.80
2023-05-20T12:29:10.411Z,10.03
2023-05-20T12:31:39.398Z,8.77
2023-05-20T12:34:25.375Z,8.50
2023-05-20T12:36:54.455Z,10.17
2023-05-20T12:39:23.468Z,9.87
2023-05-20T12:41:52.433Z,8.97
2023-05-20T12:44:21.356Z,10.07
2023-05-20T12:46:50.368Z,9.00
2023-05-20T12:49:19.472Z,10.37
2023-05-20T12:51:49.982Z,8.33
2023-05-20T12:54:19.865Z,9.30
2023-05-20T12:56:48.832Z,10.27
2023-05-20T12:59:17.920Z,9.07
2023-05-20T13:01:46.872Z,9.90
2023-05-20T13:04:15.813Z,10.30
2023-05-20T13:06:44.859Z,11.00
2023-05-20T13:09:15.251Z,10.73
2023-05-20T13:11:45.130Z,9.73
2023-05-20T13:14:15.697Z,8.27
2023-05-20T13:16:45.962Z,8.73
2023-05-20T13:19:15.080Z,8.50
2023-05-20T13:21:44.534Z,9.60
2023-05-20T13:24:14.906Z,8.33
2023-05-20T13:26:43.971Z,8.50
2023-05-20T13:29:12.961Z,9.17
2023-05-20T13:31:41.947Z,9.00
2023-05-20T13:34:10.928Z,8.37
2023-05-20T13:36:40.573Z,7.70
2023-05-20T13:39:09.561Z,8.33
2023-05-20T13:41:39.933Z,8.30
2023-05-20T13:44:09.006Z,9.63
2023-05-20T13:46:38.587Z,8.87
2023-05-20T13:49:07.588Z,8.40
2023-05-20T13:51:36.933Z,8.17
2023-05-20T13:54:06.618Z,9.10
2023-05-20T13:56:36.269Z,8.40
2023-05-20T13:59:07.120Z,9.37
2023-05-20T14:01:36.671Z,8.07
2023-05-20T14:04:07.052Z,7.90
2023-05-20T14:06:36.142Z,8.70
2023-05-20T14:09:06.554Z,8.30
2023-05-20T14:11:35.599Z,7.93
2023-05-20T14:14:06.207Z,9.60
2023-05-20T14:16:35.341Z,8.70
2023-05-20T14:19:04.748Z,7.07
2023-05-20T14:21:35.215Z,7.97
2023-05-20T14:24:04.418Z,8.17
2023-05-20T14:26:34.097Z,8.93
2023-05-20T14:29:03.074Z,9.20
2023-05-20T14:31:33.483Z,9.47
2023-05-20T14:34:02.542Z,8.23
2023-05-20T14:36:32.148Z,6.83
2023-05-20T14:39:01.077Z,8.53
2023-05-20T14:41:30.043Z,7.50
2023-05-20T14:43:59.114Z,7.40
2023-05-20T14:46:28.319Z,8.90
2023-05-20T14:48:58.674Z,8.53
2023-05-20T14:51:27.705Z,8.30
2023-05-20T14:53:56.839Z,8.77
2023-05-20T14:56:26.783Z,7.63
2023-05-20T14:58:55.856Z,8.00
2023-05-20T15:01:24.868Z,8.00
2023-05-20T15:03:53.835Z,8.63
2023-05-20T15:06:24.448Z,8.00
2023-05-20T15:08:53.651Z,7.13
2023-05-20T15:11:22.572Z,8.30
2023-05-20T15:13:51.632Z,8.37
2023-05-20T15:16:24.265Z,9.00
2023-05-20T15:18:53.391Z,8.57
2023-05-20T15:21:23.824Z,8.53
2023-05-20T15:23:53.522Z,9.07
2023-05-20T15:26:22.950Z,8.53
2023-05-20T15:28:52.057Z,8.17
2023-05-20T15:31:21.068Z,8.60
2023-05-20T15:33:50.142Z,7.30
2023-05-20T15:36:19.405Z,7.43
2023-05-20T15:38:50.096Z,8.80
2023-05-20T15:41:19.262Z,7.80
2023-05-20T15:43:48.240Z,8.23
2023-05-20T15:46:17.798Z,8.70
2023-05-20T15:48:50.035Z,8.63
2023-05-20T15:51:19.198Z,7.70
2023-05-20T15:53:49.666Z,8.00
2023-05-20T15:56:18.863Z,8.77
2023-05-20T15:58:47.801Z,7.73
2023-05-20T16:01:17.076Z,8.20
2023-05-20T16:03:46.180Z,7.23
2023-05-20T16:06:15.206Z,6.83
2023-05-20T16:08:44.089Z,7.27
2023-05-20T16:11:14.700Z,7.70
2023-05-20T16:13:43.533Z,8.30
2023-05-20T16:16:13.928Z,15.90
2023-05-20T16:18:42.916Z,7.90
2023-05-20T16:21:11.864Z,10.10
2023-05-20T16:23:40.821Z,7.63
2023-05-20T16:26:09.769Z,8.20
2023-05-20T16:28:40.155Z,9.27
2023-05-20T16:31:09.164Z,8.43
2023-05-20T16:33:38.212Z,8.83
2023-05-20T16:36:07.705Z,8.60
2023-05-20T16:38:36.959Z,8.90
2023-05-20T16:41:05.932Z,7.73
2023-05-20T16:43:34.849Z,7.63
2023-05-20T16:46:05.261Z,7.00
2023-05-20T16:48:34.283Z,7.80
2023-05-20T16:51:03.205Z,8.83
2023-05-20T16:53:32.153Z,6.97
2023-05-20T16:56:01.218Z,7.67
2023-05-20T16:58:30.221Z,8.30
2023-05-20T17:00:59.380Z,6.60
2023-05-20T17:03:29.796Z,7.13
2023-05-20T17:05:58.827Z,7.37
2023-05-20T17:08:28.464Z,7.80
2023-05-20T17:10:57.689Z,7.53
2023-05-20T17:13:26.617Z,8.33
2023-05-20T17:15:55.638Z,7.33
2023-05-20T17:18:24.602Z,7.53
2023-05-20T17:20:54.922Z,8.50
2023-05-20T17:23:24.053Z,7.00
2023-05-20T17:25:52.950Z,8.30
2023-05-20T17:28:22.030Z,8.23
2023-05-20T17:30:51.148Z,7.30
2023-05-20T17:33:20.238Z,10.10
2023-05-20T17:35:49.353Z,8.17
2023-05-20T17:38:22.291Z,7.27
2023-05-20T17:40:51.765Z,8.90
2023-05-20T17:43:20.807Z,8.17
2023-05-20T17:45:50.014Z,6.50
2023-05-20T17:48:19.189Z,7.13
2023-05-20T17:50:48.198Z,8.57
2023-05-20T17:53:21.755Z,8.43
2023-05-20T17:55:51.154Z,8.30
2023-05-20T17:58:22.344Z,9.20
2023-05-20T18:00:51.329Z,8.80
2023-05-20T18:03:20.336Z,8.30
2023-05-20T18:05:49.411Z,10.50
2023-05-20T18:08:19.717Z,8.40
2023-05-20T18:10:48.816Z,9.87
2023-05-20T18:13:17.745Z,8.43
2023-05-20T18:15:47.081Z,8.83
2023-05-20T18:18:16.355Z,8.50
2023-05-20T18:20:45.374Z,9.50
2023-05-20T18:23:14.368Z,8.97
2023-05-20T18:25:44.948Z,12.23
2023-05-20T18:28:14.129Z,16.77
2023-05-20T18:30:43.101Z,15.60
2023-05-20T18:33:12.144Z,12.53
2023-05-20T18:35:41.143Z,10.27
2023-05-20T18:38:10.095Z,12.73
2023-05-20T18:40:39.024Z,12.70
2023-05-20T18:43:09.326Z,13.37
2023-05-20T18:45:38.434Z,9.60
2023-05-20T18:48:07.616Z,11.50
2023-05-20T18:50:36.955Z,9.27
2023-05-20T18:53:06.139Z,16.40
2023-05-20T18:55:35.062Z,11.37
2023-05-20T18:58:03.954Z,9.20
2023-05-20T19:00:34.577Z,11.20
2023-05-20T19:03:03.723Z,11.47
2023-05-20T19:05:32.785Z,12.30
2023-05-20T19:08:02.747Z,11.20
2023-05-20T19:10:31.769Z,20.23
2023-05-20T19:13:01.261Z,21.23
2023-05-20T19:15:31.338Z,13.20
2023-05-20T19:18:01.871Z,13.10
2023-05-20T19:20:31.040Z,14.90
2023-05-20T19:22:59.956Z,11.67
2023-05-20T19:25:28.946Z,12.10
2023-05-20T19:27:58.009Z,11.20
2023-05-20T19:30:26.977Z,10.83
2023-05-20T19:32:56.193Z,11.50
2023-05-20T19:35:26.848Z,11.63
2023-05-20T19:37:56.166Z,10.73
2023-05-20T19:40:25.113Z,11.60
2023-05-20T19:42:54.045Z,13.60
2023-05-20T19:45:25.108Z,10.97
2023-05-20T19:47:54.108Z,10.63
2023-05-20T19:50:23.105Z,10.30
2023-05-20T19:52:53.576Z,12.77
2023-05-20T19:55:22.679Z,11.70
2023-05-20T19:57:53.438Z,12.77
2023-05-20T20:00:22.571Z,12.10
2023-05-20T20:02:51.503Z,12.57
2023-05-20T20:05:23.760Z,12.07
2023-05-20T20:07:54.311Z,11.43
2023-05-20T20:10:23.538Z,12.23
2023-05-20T20:12:52.404Z,12.90
2023-05-20T20:15:21.544Z,14.40
2023-05-20T20:17:52.368Z,14.47
2023-05-20T20:20:23.542Z,12.73
2023-05-20T20:22:54.046Z,13.50
2023-05-20T20:25:23.408Z,14.77
2023-05-20T20:27:52.736Z,12.53
2023-05-20T20:30:21.730Z,12.23
2023-05-20T20:32:52.772Z,11.77
2023-05-20T20:35:22.732Z,13.30
2023-05-20T20:37:54.553Z,12.97
2023-05-20T20:40:23.648Z,11.27
2023-05-20T20:42:54.749Z,11.10
2023-05-20T20:45:23.869Z,11.57
2023-05-20T20:47:54.971Z,11.97
2023-05-20T20:50:24.199Z,10.77
2023-05-20T20:52:54.706Z,11.47
2023-05-20T20:55:23.779Z,10.13
2023-05-20T20:57:52.810Z,11.43
2023-05-20T21:00:23.517Z,10.73
2023-05-20T21:02:52.875Z,12.70
2023-05-20T21:05:26.708Z,11.03
2023-05-20T21:07:59.625Z,11.80
2023-05-20T21:10:29.829Z,12.50
2023-05-20T21:12:59.740Z,12.90
2023-05-20T21:15:28.890Z,13.47
2023-05-20T21:17:57.817Z,12.70
2023-05-20T21:20:26.778Z,12.77
2023-05-20T21:22:57.122Z,14.23
2023-05-20T21:25:26.034Z,14.00
2023-05-20T21:28:21.308Z,15.77
2023-05-20T21:30:50.381Z,14.60
2023-05-20T21:33:19.296Z,15.63
2023-05-20T21:35:48.259Z,14.00
2023-05-20T21:38:18.641Z,13.50
2023-05-20T21:40:47.720Z,14.40
2023-05-20T21:43:18.068Z,12.90
2023-05-20T21:45:47.212Z,14.27
2023-05-20T21:48:16.302Z,14.00
2023-05-20T21:50:45.469Z,14.63
2023-05-20T21:53:14.406Z,12.97
2023-05-20T21:55:44.754Z,14.73
2023-05-20T21:58:15.866Z,14.53
2023-05-20T22:00:45.211Z,15.23
2023-05-20T22:03:15.150Z,15.00
2023-05-20T22:05:46.038Z,13.90
2023-05-20T22:08:17.152Z,13.33
2023-05-20T22:10:48.414Z,14.17
2023-05-20T22:13:17.394Z,13.73
2023-05-20T22:15:46.504Z,13.97
2023-05-20T22:18:15.578Z,14.40
2023-05-20T22:20:44.668Z,14.00
2023-05-20T22:23:13.722Z,13.80
2023-05-20T22:25:42.714Z,12.90
2023-05-20T22:29:02.591Z,13.67
2023-05-20T22:31:33.643Z,13.33
2023-05-20T22:34:04.574Z,13.83
2023-05-20T22:36:36.454Z,16.83
2023-05-20T22:39:07.128Z,15.47
2023-05-20T22:41:36.175Z,14.37
2023-05-20T22:44:05.466Z,14.70
2023-05-20T22:46:35.991Z,15.83
2023-05-20T22:49:05.026Z,15.17
2023-05-20T22:51:35.250Z,15.30
2023-05-20T22:54:04.192Z,16.57
2023-05-20T22:56:34.262Z,16.20
2023-05-20T22:59:03.495Z,16.50
2023-05-20T23:01:32.655Z,17.57
2023-05-20T23:04:03.185Z,17.00
2023-05-20T23:06:32.154Z,17.13
2023-05-20T23:09:01.021Z,16.57
2023-05-20T23:11:30.048Z,17.40
2023-05-20T23:13:59.087Z,16.57
2023-05-20T23:16:29.535Z,15.57
2023-05-20T23:18:58.644Z,16.03
2023-05-20T23:21:28.938Z,17.17
2023-05-20T23:23:58.310Z,16.57
2023-05-20T23:26:29.105Z,16.30
2023-05-20T23:28:58.195Z,17.93
2023-05-20T23:31:30.216Z,16.53
2023-05-20T23:33:59.434Z,17.73
2023-05-20T23:36:30.300Z,17.30
2023-05-20T23:38:59.254Z,16.33
2023-05-20T23:41:28.285Z,18.13
2023-05-20T23:43:57.198Z,19.77
2023-05-20T23:46:26.337Z,18.23
2023-05-20T23:48:55.289Z,17.17
2023-05-20T23:51:24.463Z,16.80
2023-05-20T23:53:54.823Z,17.57
2023-05-20T23:56:23.767Z,16.77
2023-05-20T23:58:59.268Z,17.07
